Spring Lake Park, Minnesota
Current Conditions -  °F | °C
As of 3:53 PM on Wednesday 28 Jan 2015 (Local Time) from KANE Reporting Station
Haze Haze  
Wind Chill: 24°   Ceiling: 1000
Heat Index: 32°   Visibility: 4mi
Dew Point: 28°   Wind: 10mph
Humidity: 87%   Direction: 140°SE
Pressure: 29.81"   Gusts: NA
Location:  45.0968°N, 93.2542°W
Report Text: KANE 282153Z 14009KT 4SM BR OVC010 00/M02 A2981
Loading
Personal Weather Stations






























Interactive Weather Map New forecast layout! Learn more

10-Day Weather Forecast

Advertisements
Track Severe Weather on mobile